sensor_id;sensor_type;location;lat;lon;timestamp;P1;durP1;ratioP1;P2;durP2;ratioP2
3941;SDS011;1985;48.592;8.850;2023-05-07T00:02:20;10.80;;;2.40;;
3941;SDS011;1985;48.592;8.850;2023-05-07T00:04:46;10.43;;;2.00;;
3941;SDS011;1985;48.592;8.850;2023-05-07T00:07:12;10.03;;;2.00;;
3941;SDS011;1985;48.592;8.850;2023-05-07T00:09:37;10.18;;;2.50;;
3941;SDS011;1985;48.592;8.850;2023-05-07T00:12:03;9.70;;;2.28;;
3941;SDS011;1985;48.592;8.850;2023-05-07T00:14:29;9.50;;;2.00;;
3941;SDS011;1985;48.592;8.850;2023-05-07T00:16:55;9.80;;;2.30;;
3941;SDS011;1985;48.592;8.850;2023-05-07T00:19:20;10.40;;;2.42;;
3941;SDS011;1985;48.592;8.850;2023-05-07T00:21:46;9.20;;;2.30;;
3941;SDS011;1985;48.592;8.850;2023-05-07T00:24:11;9.88;;;2.30;;
3941;SDS011;1985;48.592;8.850;2023-05-07T00:26:37;12.40;;;2.70;;
3941;SDS011;1985;48.592;8.850;2023-05-07T00:29:03;10.00;;;2.30;;
3941;SDS011;1985;48.592;8.850;2023-05-07T00:31:28;9.80;;;2.25;;
3941;SDS011;1985;48.592;8.850;2023-05-07T00:33:54;9.63;;;2.15;;
3941;SDS011;1985;48.592;8.850;2023-05-07T00:36:19;10.90;;;2.40;;
3941;SDS011;1985;48.592;8.850;2023-05-07T00:38:45;14.27;;;2.40;;
3941;SDS011;1985;48.592;8.850;2023-05-07T00:41:10;12.47;;;2.10;;
3941;SDS011;1985;48.592;8.850;2023-05-07T00:43:36;10.70;;;2.20;;
3941;SDS011;1985;48.592;8.850;2023-05-07T00:46:02;9.90;;;2.17;;
3941;SDS011;1985;48.592;8.850;2023-05-07T00:48:28;10.13;;;2.30;;
3941;SDS011;1985;48.592;8.850;2023-05-07T00:50:54;10.57;;;2.30;;
3941;SDS011;1985;48.592;8.850;2023-05-07T00:53:19;9.27;;;2.10;;
3941;SDS011;1985;48.592;8.850;2023-05-07T00:55:46;11.10;;;2.50;;
3941;SDS011;1985;48.592;8.850;2023-05-07T00:58:12;11.93;;;2.23;;
3941;SDS011;1985;48.592;8.850;2023-05-07T01:00:37;9.60;;;2.20;;
3941;SDS011;1985;48.592;8.850;2023-05-07T01:03:03;9.13;;;2.10;;
3941;SDS011;1985;48.592;8.850;2023-05-07T01:05:29;11.15;;;2.10;;
3941;SDS011;1985;48.592;8.850;2023-05-07T01:07:55;11.52;;;2.22;;
3941;SDS011;1985;48.592;8.850;2023-05-07T01:10:22;9.80;;;2.60;;
3941;SDS011;1985;48.592;8.850;2023-05-07T01:12:49;11.75;;;2.60;;
3941;SDS011;1985;48.592;8.850;2023-05-07T01:15:16;9.50;;;2.00;;
3941;SDS011;1985;48.592;8.850;2023-05-07T01:17:42;10.00;;;2.25;;
3941;SDS011;1985;48.592;8.850;2023-05-07T01:20:08;9.60;;;2.20;;
3941;SDS011;1985;48.592;8.850;2023-05-07T01:22:35;9.30;;;2.40;;
3941;SDS011;1985;48.592;8.850;2023-05-07T01:25:03;16.95;;;2.42;;
3941;SDS011;1985;48.592;8.850;2023-05-07T01:27:29;11.95;;;2.53;;
3941;SDS011;1985;48.592;8.850;2023-05-07T01:29:55;9.07;;;2.00;;
3941;SDS011;1985;48.592;8.850;2023-05-07T01:32:23;9.85;;;2.38;;
3941;SDS011;1985;48.592;8.850;2023-05-07T01:34:56;10.60;;;2.40;;
3941;SDS011;1985;48.592;8.850;2023-05-07T01:37:23;9.45;;;2.20;;
3941;SDS011;1985;48.592;8.850;2023-05-07T01:39:50;10.02;;;2.70;;
3941;SDS011;1985;48.592;8.850;2023-05-07T01:42:17;11.00;;;2.30;;
3941;SDS011;1985;48.592;8.850;2023-05-07T01:44:42;11.70;;;3.00;;
3941;SDS011;1985;48.592;8.850;2023-05-07T01:47:08;9.73;;;2.53;;
3941;SDS011;1985;48.592;8.850;2023-05-07T01:49:34;11.00;;;2.20;;
3941;SDS011;1985;48.592;8.850;2023-05-07T01:52:00;11.20;;;2.17;;
3941;SDS011;1985;48.592;8.850;2023-05-07T01:54:26;9.45;;;2.40;;
3941;SDS011;1985;48.592;8.850;2023-05-07T01:56:58;9.73;;;2.40;;
3941;SDS011;1985;48.592;8.850;2023-05-07T01:59:24;10.23;;;2.37;;
3941;SDS011;1985;48.592;8.850;2023-05-07T02:01:50;9.68;;;2.05;;
3941;SDS011;1985;48.592;8.850;2023-05-07T02:04:16;10.77;;;2.30;;
3941;SDS011;1985;48.592;8.850;2023-05-07T02:06:42;10.00;;;2.30;;
3941;SDS011;1985;48.592;8.850;2023-05-07T02:09:08;9.20;;;2.20;;
3941;SDS011;1985;48.592;8.850;2023-05-07T02:11:36;15.30;;;2.60;;
3941;SDS011;1985;48.592;8.850;2023-05-07T02:14:01;11.38;;;2.60;;
3941;SDS011;1985;48.592;8.850;2023-05-07T02:16:27;9.13;;;2.37;;
3941;SDS011;1985;48.592;8.850;2023-05-07T02:18:53;9.60;;;2.60;;
3941;SDS011;1985;48.592;8.850;2023-05-07T02:21:18;9.68;;;2.20;;
3941;SDS011;1985;48.592;8.850;2023-05-07T02:23:44;9.80;;;2.60;;
3941;SDS011;1985;48.592;8.850;2023-05-07T02:26:10;10.03;;;2.30;;
3941;SDS011;1985;48.592;8.850;2023-05-07T02:28:36;9.88;;;2.58;;
3941;SDS011;1985;48.592;8.850;2023-05-07T02:31:04;9.43;;;2.45;;
3941;SDS011;1985;48.592;8.850;2023-05-07T02:33:30;9.55;;;2.58;;
3941;SDS011;1985;48.592;8.850;2023-05-07T02:35:56;12.45;;;2.65;;
3941;SDS011;1985;48.592;8.850;2023-05-07T02:38:22;9.70;;;2.30;;
3941;SDS011;1985;48.592;8.850;2023-05-07T02:40:48;10.13;;;2.75;;
3941;SDS011;1985;48.592;8.850;2023-05-07T02:43:14;9.48;;;2.70;;
3941;SDS011;1985;48.592;8.850;2023-05-07T02:45:39;13.83;;;2.33;;
3941;SDS011;1985;48.592;8.850;2023-05-07T02:48:05;10.60;;;2.30;;
3941;SDS011;1985;48.592;8.850;2023-05-07T02:50:31;9.45;;;2.33;;
3941;SDS011;1985;48.592;8.850;2023-05-07T02:52:57;10.00;;;2.35;;
3941;SDS011;1985;48.592;8.850;2023-05-07T02:55:23;9.70;;;2.50;;
3941;SDS011;1985;48.592;8.850;2023-05-07T02:57:48;10.30;;;2.47;;
3941;SDS011;1985;48.592;8.850;2023-05-07T03:00:15;9.80;;;2.80;;
3941;SDS011;1985;48.592;8.850;2023-05-07T03:02:42;10.07;;;2.90;;
3941;SDS011;1985;48.592;8.850;2023-05-07T03:05:08;10.50;;;3.00;;
3941;SDS011;1985;48.592;8.850;2023-05-07T03:07:35;9.07;;;2.20;;
3941;SDS011;1985;48.592;8.850;2023-05-07T03:10:01;10.02;;;2.53;;
3941;SDS011;1985;48.592;8.850;2023-05-07T03:12:27;10.18;;;2.40;;
3941;SDS011;1985;48.592;8.850;2023-05-07T03:14:52;10.97;;;2.30;;
3941;SDS011;1985;48.592;8.850;2023-05-07T03:17:18;10.40;;;2.40;;
3941;SDS011;1985;48.592;8.850;2023-05-07T03:19:43;11.95;;;2.63;;
3941;SDS011;1985;48.592;8.850;2023-05-07T03:22:09;8.93;;;2.00;;
3941;SDS011;1985;48.592;8.850;2023-05-07T03:24:35;9.07;;;2.40;;
3941;SDS011;1985;48.592;8.850;2023-05-07T03:27:00;9.73;;;2.60;;
3941;SDS011;1985;48.592;8.850;2023-05-07T03:29:26;9.00;;;2.30;;
3941;SDS011;1985;48.592;8.850;2023-05-07T03:31:52;10.40;;;2.50;;
3941;SDS011;1985;48.592;8.850;2023-05-07T03:34:17;9.25;;;1.98;;
3941;SDS011;1985;48.592;8.850;2023-05-07T03:36:50;9.85;;;2.60;;
3941;SDS011;1985;48.592;8.850;2023-05-07T03:39:16;11.75;;;3.30;;
3941;SDS011;1985;48.592;8.850;2023-05-07T03:41:42;10.00;;;2.10;;
3941;SDS011;1985;48.592;8.850;2023-05-07T03:44:07;11.00;;;2.40;;
3941;SDS011;1985;48.592;8.850;2023-05-07T03:46:33;10.30;;;2.17;;
3941;SDS011;1985;48.592;8.850;2023-05-07T03:48:59;9.87;;;2.53;;
3941;SDS011;1985;48.592;8.850;2023-05-07T03:51:25;10.40;;;2.50;;
3941;SDS011;1985;48.592;8.850;2023-05-07T03:53:50;10.33;;;2.80;;
3941;SDS011;1985;48.592;8.850;2023-05-07T03:56:19;10.70;;;2.40;;
3941;SDS011;1985;48.592;8.850;2023-05-07T03:58:46;10.60;;;2.40;;
3941;SDS011;1985;48.592;8.850;2023-05-07T04:01:12;9.75;;;2.53;;
3941;SDS011;1985;48.592;8.850;2023-05-07T04:03:38;9.57;;;2.38;;
3941;SDS011;1985;48.592;8.850;2023-05-07T04:06:03;9.88;;;2.50;;
3941;SDS011;1985;48.592;8.850;2023-05-07T04:08:29;9.53;;;2.50;;
3941;SDS011;1985;48.592;8.850;2023-05-07T04:10:58;12.73;;;2.70;;
3941;SDS011;1985;48.592;8.850;2023-05-07T04:13:24;11.80;;;2.38;;
3941;SDS011;1985;48.592;8.850;2023-05-07T04:15:51;11.10;;;2.33;;
3941;SDS011;1985;48.592;8.850;2023-05-07T04:18:17;10.07;;;2.70;;
3941;SDS011;1985;48.592;8.850;2023-05-07T04:20:43;8.90;;;2.30;;
3941;SDS011;1985;48.592;8.850;2023-05-07T04:23:08;9.20;;;2.30;;
3941;SDS011;1985;48.592;8.850;2023-05-07T04:25:34;9.65;;;2.30;;
3941;SDS011;1985;48.592;8.850;2023-05-07T04:28:00;11.70;;;2.57;;
3941;SDS011;1985;48.592;8.850;2023-05-07T04:30:25;9.50;;;2.40;;
3941;SDS011;1985;48.592;8.850;2023-05-07T04:32:51;11.80;;;2.80;;
3941;SDS011;1985;48.592;8.850;2023-05-07T04:35:17;9.98;;;2.58;;
3941;SDS011;1985;48.592;8.850;2023-05-07T04:37:43;10.15;;;2.75;;
3941;SDS011;1985;48.592;8.850;2023-05-07T04:40:09;10.13;;;2.90;;
3941;SDS011;1985;48.592;8.850;2023-05-07T04:42:35;10.70;;;3.00;;
3941;SDS011;1985;48.592;8.850;2023-05-07T04:45:01;10.80;;;2.90;;
3941;SDS011;1985;48.592;8.850;2023-05-07T04:47:27;9.20;;;2.30;;
3941;SDS011;1985;48.592;8.850;2023-05-07T04:49:53;11.50;;;2.60;;
3941;SDS011;1985;48.592;8.850;2023-05-07T04:52:18;10.27;;;2.50;;
3941;SDS011;1985;48.592;8.850;2023-05-07T04:54:44;10.50;;;2.60;;
3941;SDS011;1985;48.592;8.850;2023-05-07T04:57:09;9.70;;;2.35;;
3941;SDS011;1985;48.592;8.850;2023-05-07T04:59:35;11.00;;;2.50;;
3941;SDS011;1985;48.592;8.850;2023-05-07T05:02:01;8.80;;;2.40;;
3941;SDS011;1985;48.592;8.850;2023-05-07T05:04:26;11.90;;;2.95;;
3941;SDS011;1985;48.592;8.850;2023-05-07T05:06:52;10.20;;;2.53;;
3941;SDS011;1985;48.592;8.850;2023-05-07T05:09:18;10.83;;;2.40;;
3941;SDS011;1985;48.592;8.850;2023-05-07T05:11:43;10.05;;;2.45;;
3941;SDS011;1985;48.592;8.850;2023-05-07T05:14:09;11.53;;;2.60;;
3941;SDS011;1985;48.592;8.850;2023-05-07T05:16:35;10.35;;;2.90;;
3941;SDS011;1985;48.592;8.850;2023-05-07T05:19:01;10.70;;;2.70;;
3941;SDS011;1985;48.592;8.850;2023-05-07T05:21:27;11.52;;;3.00;;
3941;SDS011;1985;48.592;8.850;2023-05-07T05:23:52;11.05;;;3.00;;
3941;SDS011;1985;48.592;8.850;2023-05-07T05:26:19;9.80;;;2.80;;
3941;SDS011;1985;48.592;8.850;2023-05-07T05:28:46;9.70;;;2.50;;
3941;SDS011;1985;48.592;8.850;2023-05-07T05:31:11;10.57;;;2.78;;
3941;SDS011;1985;48.592;8.850;2023-05-07T05:33:37;10.27;;;2.73;;
3941;SDS011;1985;48.592;8.850;2023-05-07T05:36:03;9.40;;;2.50;;
3941;SDS011;1985;48.592;8.850;2023-05-07T05:38:29;10.45;;;3.10;;
3941;SDS011;1985;48.592;8.850;2023-05-07T05:40:54;9.57;;;2.53;;
3941;SDS011;1985;48.592;8.850;2023-05-07T05:43:20;14.37;;;2.30;;
3941;SDS011;1985;48.592;8.850;2023-05-07T05:45:46;10.50;;;2.80;;
3941;SDS011;1985;48.592;8.850;2023-05-07T05:48:11;10.23;;;2.90;;
3941;SDS011;1985;48.592;8.850;2023-05-07T05:50:37;9.73;;;2.87;;
3941;SDS011;1985;48.592;8.850;2023-05-07T05:53:02;10.60;;;2.70;;
3941;SDS011;1985;48.592;8.850;2023-05-07T05:55:28;9.80;;;2.58;;
3941;SDS011;1985;48.592;8.850;2023-05-07T05:57:54;10.18;;;2.60;;
3941;SDS011;1985;48.592;8.850;2023-05-07T06:00:20;9.95;;;2.50;;
3941;SDS011;1985;48.592;8.850;2023-05-07T06:02:47;10.02;;;2.80;;
3941;SDS011;1985;48.592;8.850;2023-05-07T06:05:13;10.90;;;2.92;;
3941;SDS011;1985;48.592;8.850;2023-05-07T06:07:39;11.50;;;3.00;;
3941;SDS011;1985;48.592;8.850;2023-05-07T06:10:04;10.27;;;2.83;;
3941;SDS011;1985;48.592;8.850;2023-05-07T06:12:31;10.25;;;3.20;;
3941;SDS011;1985;48.592;8.850;2023-05-07T06:14:56;14.70;;;2.80;;
3941;SDS011;1985;48.592;8.850;2023-05-07T06:17:22;15.00;;;3.37;;
3941;SDS011;1985;48.592;8.850;2023-05-07T06:19:48;10.77;;;2.95;;
3941;SDS011;1985;48.592;8.850;2023-05-07T06:22:13;11.93;;;3.40;;
3941;SDS011;1985;48.592;8.850;2023-05-07T06:24:39;13.20;;;3.53;;
3941;SDS011;1985;48.592;8.850;2023-05-07T06:27:04;11.80;;;3.20;;
3941;SDS011;1985;48.592;8.850;2023-05-07T06:29:30;11.90;;;3.47;;
3941;SDS011;1985;48.592;8.850;2023-05-07T06:32:05;11.77;;;3.30;;
3941;SDS011;1985;48.592;8.850;2023-05-07T06:34:34;10.50;;;3.30;;
3941;SDS011;1985;48.592;8.850;2023-05-07T06:37:00;12.00;;;2.90;;
3941;SDS011;1985;48.592;8.850;2023-05-07T06:39:26;11.68;;;2.90;;
3941;SDS011;1985;48.592;8.850;2023-05-07T06:41:52;11.27;;;3.40;;
3941;SDS011;1985;48.592;8.850;2023-05-07T06:44:17;11.32;;;3.80;;
3941;SDS011;1985;48.592;8.850;2023-05-07T06:46:43;14.03;;;3.20;;
3941;SDS011;1985;48.592;8.850;2023-05-07T06:49:10;13.43;;;3.77;;
3941;SDS011;1985;48.592;8.850;2023-05-07T06:51:38;10.27;;;3.35;;
3941;SDS011;1985;48.592;8.850;2023-05-07T06:54:03;11.37;;;3.53;;
3941;SDS011;1985;48.592;8.850;2023-05-07T06:56:29;11.50;;;3.10;;
3941;SDS011;1985;48.592;8.850;2023-05-07T06:58:55;13.00;;;3.90;;
3941;SDS011;1985;48.592;8.850;2023-05-07T07:01:21;14.13;;;3.60;;
3941;SDS011;1985;48.592;8.850;2023-05-07T07:03:47;10.82;;;3.10;;
3941;SDS011;1985;48.592;8.850;2023-05-07T07:06:12;14.23;;;3.63;;
3941;SDS011;1985;48.592;8.850;2023-05-07T07:08:38;10.87;;;3.20;;
3941;SDS011;1985;48.592;8.850;2023-05-07T07:11:04;13.13;;;4.60;;
3941;SDS011;1985;48.592;8.850;2023-05-07T07:13:30;12.55;;;3.40;;
3941;SDS011;1985;48.592;8.850;2023-05-07T07:15:56;9.73;;;3.00;;
3941;SDS011;1985;48.592;8.850;2023-05-07T07:18:21;10.00;;;2.92;;
3941;SDS011;1985;48.592;8.850;2023-05-07T07:20:47;11.52;;;3.38;;
3941;SDS011;1985;48.592;8.850;2023-05-07T07:23:13;10.07;;;3.10;;
3941;SDS011;1985;48.592;8.850;2023-05-07T07:25:39;10.98;;;3.17;;
3941;SDS011;1985;48.592;8.850;2023-05-07T07:28:05;11.90;;;3.07;;
3941;SDS011;1985;48.592;8.850;2023-05-07T07:30:31;12.40;;;3.10;;
3941;SDS011;1985;48.592;8.850;2023-05-07T07:32:56;11.27;;;3.13;;
3941;SDS011;1985;48.592;8.850;2023-05-07T07:35:27;10.73;;;3.10;;
3941;SDS011;1985;48.592;8.850;2023-05-07T07:37:53;11.23;;;3.20;;
3941;SDS011;1985;48.592;8.850;2023-05-07T07:40:19;10.95;;;3.30;;
3941;SDS011;1985;48.592;8.850;2023-05-07T07:42:44;10.20;;;3.30;;
3941;SDS011;1985;48.592;8.850;2023-05-07T07:45:10;9.80;;;2.87;;
3941;SDS011;1985;48.592;8.850;2023-05-07T07:47:36;12.07;;;3.60;;
3941;SDS011;1985;48.592;8.850;2023-05-07T07:50:02;10.00;;;3.10;;
3941;SDS011;1985;48.592;8.850;2023-05-07T07:52:27;11.50;;;3.50;;
3941;SDS011;1985;48.592;8.850;2023-05-07T07:54:53;10.90;;;3.00;;
3941;SDS011;1985;48.592;8.850;2023-05-07T07:57:19;10.40;;;3.33;;
3941;SDS011;1985;48.592;8.850;2023-05-07T07:59:44;13.50;;;3.67;;
3941;SDS011;1985;48.592;8.850;2023-05-07T08:02:10;10.40;;;3.20;;
3941;SDS011;1985;48.592;8.850;2023-05-07T08:04:36;11.03;;;3.50;;
3941;SDS011;1985;48.592;8.850;2023-05-07T08:07:02;12.80;;;3.20;;
3941;SDS011;1985;48.592;8.850;2023-05-07T08:09:28;14.40;;;3.30;;
3941;SDS011;1985;48.592;8.850;2023-05-07T08:11:53;10.20;;;3.20;;
3941;SDS011;1985;48.592;8.850;2023-05-07T08:14:19;10.80;;;3.00;;
3941;SDS011;1985;48.592;8.850;2023-05-07T08:16:45;11.20;;;3.47;;
3941;SDS011;1985;48.592;8.850;2023-05-07T08:19:10;12.00;;;3.67;;
3941;SDS011;1985;48.592;8.850;2023-05-07T08:21:38;10.70;;;3.90;;
3941;SDS011;1985;48.592;8.850;2023-05-07T08:24:04;11.27;;;3.20;;
3941;SDS011;1985;48.592;8.850;2023-05-07T08:26:30;11.70;;;3.15;;
3941;SDS011;1985;48.592;8.850;2023-05-07T08:28:56;9.83;;;2.67;;
3941;SDS011;1985;48.592;8.850;2023-05-07T08:31:21;10.35;;;2.85;;
3941;SDS011;1985;48.592;8.850;2023-05-07T08:33:47;11.13;;;3.28;;
3941;SDS011;1985;48.592;8.850;2023-05-07T08:36:13;10.30;;;3.10;;
3941;SDS011;1985;48.592;8.850;2023-05-07T08:38:38;10.63;;;2.90;;
3941;SDS011;1985;48.592;8.850;2023-05-07T08:41:05;9.50;;;2.78;;
3941;SDS011;1985;48.592;8.850;2023-05-07T08:43:32;10.10;;;3.15;;
3941;SDS011;1985;48.592;8.850;2023-05-07T08:46:01;12.27;;;3.40;;
3941;SDS011;1985;48.592;8.850;2023-05-07T08:48:27;12.13;;;3.40;;
3941;SDS011;1985;48.592;8.850;2023-05-07T08:50:55;12.93;;;3.00;;
3941;SDS011;1985;48.592;8.850;2023-05-07T08:53:21;11.20;;;3.00;;
3941;SDS011;1985;48.592;8.850;2023-05-07T08:55:46;10.97;;;3.40;;
3941;SDS011;1985;48.592;8.850;2023-05-07T08:58:13;14.02;;;4.05;;
3941;SDS011;1985;48.592;8.850;2023-05-07T09:00:39;11.93;;;3.88;;
3941;SDS011;1985;48.592;8.850;2023-05-07T09:03:06;13.10;;;3.33;;
3941;SDS011;1985;48.592;8.850;2023-05-07T09:05:31;10.38;;;3.17;;
3941;SDS011;1985;48.592;8.850;2023-05-07T09:08:00;9.52;;;2.85;;
3941;SDS011;1985;48.592;8.850;2023-05-07T09:10:28;11.00;;;3.00;;
3941;SDS011;1985;48.592;8.850;2023-05-07T09:12:54;12.03;;;3.00;;
3941;SDS011;1985;48.592;8.850;2023-05-07T09:15:20;12.52;;;2.70;;
3941;SDS011;1985;48.592;8.850;2023-05-07T09:17:46;9.77;;;2.77;;
3941;SDS011;1985;48.592;8.850;2023-05-07T09:20:11;11.40;;;2.80;;
3941;SDS011;1985;48.592;8.850;2023-05-07T09:22:37;11.52;;;2.40;;
3941;SDS011;1985;48.592;8.850;2023-05-07T09:25:04;9.90;;;2.80;;
3941;SDS011;1985;48.592;8.850;2023-05-07T09:27:34;10.45;;;2.80;;
3941;SDS011;1985;48.592;8.850;2023-05-07T09:30:02;10.55;;;3.05;;
3941;SDS011;1985;48.592;8.850;2023-05-07T09:32:29;10.50;;;2.63;;
3941;SDS011;1985;48.592;8.850;2023-05-07T09:34:56;14.77;;;3.30;;
3941;SDS011;1985;48.592;8.850;2023-05-07T09:37:21;10.90;;;3.30;;
3941;SDS011;1985;48.592;8.850;2023-05-07T09:39:48;12.33;;;3.43;;
3941;SDS011;1985;48.592;8.850;2023-05-07T09:42:14;15.43;;;2.90;;
3941;SDS011;1985;48.592;8.850;2023-05-07T09:44:40;9.90;;;3.00;;
3941;SDS011;1985;48.592;8.850;2023-05-07T09:47:08;9.57;;;2.70;;
3941;SDS011;1985;48.592;8.850;2023-05-07T09:49:36;9.93;;;2.85;;
3941;SDS011;1985;48.592;8.850;2023-05-07T09:52:03;10.30;;;3.25;;
3941;SDS011;1985;48.592;8.850;2023-05-07T09:54:31;9.70;;;2.80;;
3941;SDS011;1985;48.592;8.850;2023-05-07T09:56:59;9.50;;;2.70;;
3941;SDS011;1985;48.592;8.850;2023-05-07T09:59:28;9.55;;;2.40;;
3941;SDS011;1985;48.592;8.850;2023-05-07T10:01:56;10.27;;;2.78;;
3941;SDS011;1985;48.592;8.850;2023-05-07T10:04:26;10.40;;;2.70;;
3941;SDS011;1985;48.592;8.850;2023-05-07T10:06:52;11.20;;;2.53;;
3941;SDS011;1985;48.592;8.850;2023-05-07T10:09:18;9.88;;;2.80;;
3941;SDS011;1985;48.592;8.850;2023-05-07T10:11:44;10.13;;;2.25;;
3941;SDS011;1985;48.592;8.850;2023-05-07T10:14:11;9.48;;;2.50;;
3941;SDS011;1985;48.592;8.850;2023-05-07T10:16:38;10.43;;;2.75;;
3941;SDS011;1985;48.592;8.850;2023-05-07T10:19:05;9.80;;;2.30;;
3941;SDS011;1985;48.592;8.850;2023-05-07T10:21:38;10.60;;;2.30;;
3941;SDS011;1985;48.592;8.850;2023-05-07T10:24:20;10.75;;;2.22;;
3941;SDS011;1985;48.592;8.850;2023-05-07T10:26:51;10.20;;;2.10;;
3941;SDS011;1985;48.592;8.850;2023-05-07T10:29:21;9.70;;;2.20;;
3941;SDS011;1985;48.592;8.850;2023-05-07T10:34:32;8.85;;;1.90;;
3941;SDS011;1985;48.592;8.850;2023-05-07T10:37:05;8.90;;;2.10;;
3941;SDS011;1985;48.592;8.850;2023-05-07T10:39:31;10.30;;;2.20;;
3941;SDS011;1985;48.592;8.850;2023-05-07T10:42:06;8.50;;;2.28;;
3941;SDS011;1985;48.592;8.850;2023-05-07T10:44:35;8.50;;;1.80;;
3941;SDS011;1985;48.592;8.850;2023-05-07T10:47:11;9.20;;;2.00;;
3941;SDS011;1985;48.592;8.850;2023-05-07T10:52:23;8.60;;;2.10;;
3941;SDS011;1985;48.592;8.850;2023-05-07T10:57:50;8.30;;;1.93;;
3941;SDS011;1985;48.592;8.850;2023-05-07T11:05:25;8.70;;;1.90;;
3941;SDS011;1985;48.592;8.850;2023-05-07T11:07:55;10.52;;;2.40;;
3941;SDS011;1985;48.592;8.850;2023-05-07T11:10:21;11.90;;;2.10;;
3941;SDS011;1985;48.592;8.850;2023-05-07T11:12:51;13.57;;;2.25;;
3941;SDS011;1985;48.592;8.850;2023-05-07T11:15:33;11.40;;;1.80;;
3941;SDS011;1985;48.592;8.850;2023-05-07T11:18:03;8.90;;;1.90;;
3941;SDS011;1985;48.592;8.850;2023-05-07T11:26:00;10.27;;;1.87;;
3941;SDS011;1985;48.592;8.850;2023-05-07T11:28:36;8.88;;;1.90;;
3941;SDS011;1985;48.592;8.850;2023-05-07T11:31:06;8.77;;;2.13;;
3941;SDS011;1985;48.592;8.850;2023-05-07T11:33:33;10.10;;;2.10;;
3941;SDS011;1985;48.592;8.850;2023-05-07T11:35:59;11.27;;;2.00;;
3941;SDS011;1985;48.592;8.850;2023-05-07T11:38:25;10.07;;;1.90;;
3941;SDS011;1985;48.592;8.850;2023-05-07T11:40:54;11.40;;;1.87;;
3941;SDS011;1985;48.592;8.850;2023-05-07T11:43:21;8.70;;;2.10;;
3941;SDS011;1985;48.592;8.850;2023-05-07T11:45:47;11.65;;;2.20;;
3941;SDS011;1985;48.592;8.850;2023-05-07T11:48:13;9.32;;;2.35;;
3941;SDS011;1985;48.592;8.850;2023-05-07T11:50:53;9.27;;;2.10;;
3941;SDS011;1985;48.592;8.850;2023-05-07T11:53:25;9.18;;;1.73;;
3941;SDS011;1985;48.592;8.850;2023-05-07T11:55:52;10.10;;;1.70;;
3941;SDS011;1985;48.592;8.850;2023-05-07T11:58:21;8.10;;;1.60;;
3941;SDS011;1985;48.592;8.850;2023-05-07T12:00:49;10.40;;;1.90;;
3941;SDS011;1985;48.592;8.850;2023-05-07T12:03:15;8.57;;;1.60;;
3941;SDS011;1985;48.592;8.850;2023-05-07T12:05:41;8.60;;;1.67;;
3941;SDS011;1985;48.592;8.850;2023-05-07T12:08:07;8.70;;;1.83;;
3941;SDS011;1985;48.592;8.850;2023-05-07T12:10:32;8.45;;;1.60;;
3941;SDS011;1985;48.592;8.850;2023-05-07T12:12:58;8.70;;;1.70;;
3941;SDS011;1985;48.592;8.850;2023-05-07T12:15:24;8.30;;;1.90;;
3941;SDS011;1985;48.592;8.850;2023-05-07T12:17:49;8.90;;;1.80;;
3941;SDS011;1985;48.592;8.850;2023-05-07T12:20:17;9.75;;;2.10;;
3941;SDS011;1985;48.592;8.850;2023-05-07T12:22:43;8.80;;;1.90;;
3941;SDS011;1985;48.592;8.850;2023-05-07T12:25:09;8.07;;;1.40;;
3941;SDS011;1985;48.592;8.850;2023-05-07T12:27:36;10.30;;;1.80;;
3941;SDS011;1985;48.592;8.850;2023-05-07T12:30:04;9.20;;;1.95;;
3941;SDS011;1985;48.592;8.850;2023-05-07T12:32:30;12.57;;;2.10;;
3941;SDS011;1985;48.592;8.850;2023-05-07T12:35:01;9.10;;;2.40;;
3941;SDS011;1985;48.592;8.850;2023-05-07T12:37:27;10.15;;;2.60;;
3941;SDS011;1985;48.592;8.850;2023-05-07T12:40:05;10.40;;;2.30;;
3941;SDS011;1985;48.592;8.850;2023-05-07T12:42:37;11.35;;;2.25;;
3941;SDS011;1985;48.592;8.850;2023-05-07T12:45:11;9.30;;;2.10;;
3941;SDS011;1985;48.592;8.850;2023-05-07T12:47:37;9.70;;;2.00;;
3941;SDS011;1985;48.592;8.850;2023-05-07T12:50:06;9.30;;;2.10;;
3941;SDS011;1985;48.592;8.850;2023-05-07T12:52:32;12.03;;;2.03;;
3941;SDS011;1985;48.592;8.850;2023-05-07T12:55:04;11.50;;;2.47;;
3941;SDS011;1985;48.592;8.850;2023-05-07T12:57:37;9.68;;;1.90;;
3941;SDS011;1985;48.592;8.850;2023-05-07T13:00:36;9.45;;;2.30;;
3941;SDS011;1985;48.592;8.850;2023-05-07T13:03:03;12.07;;;2.30;;
3941;SDS011;1985;48.592;8.850;2023-05-07T13:05:28;11.70;;;2.60;;
3941;SDS011;1985;48.592;8.850;2023-05-07T13:07:54;11.93;;;2.92;;
3941;SDS011;1985;48.592;8.850;2023-05-07T13:10:24;10.60;;;3.20;;
3941;SDS011;1985;48.592;8.850;2023-05-07T13:12:50;12.50;;;3.83;;
3941;SDS011;1985;48.592;8.850;2023-05-07T13:15:16;14.48;;;3.10;;
3941;SDS011;1985;48.592;8.850;2023-05-07T13:17:42;10.55;;;2.80;;
3941;SDS011;1985;48.592;8.850;2023-05-07T13:20:11;12.10;;;2.70;;
3941;SDS011;1985;48.592;8.850;2023-05-07T13:22:40;11.10;;;2.30;;
3941;SDS011;1985;48.592;8.850;2023-05-07T13:25:06;11.20;;;3.25;;
3941;SDS011;1985;48.592;8.850;2023-05-07T13:27:32;16.50;;;4.03;;
3941;SDS011;1985;48.592;8.850;2023-05-07T13:30:01;12.87;;;4.00;;
3941;SDS011;1985;48.592;8.850;2023-05-07T13:32:28;11.48;;;2.90;;
3941;SDS011;1985;48.592;8.850;2023-05-07T13:34:53;10.75;;;3.00;;
3941;SDS011;1985;48.592;8.850;2023-05-07T13:37:19;11.17;;;3.47;;
3941;SDS011;1985;48.592;8.850;2023-05-07T13:39:45;12.95;;;3.05;;
3941;SDS011;1985;48.592;8.850;2023-05-07T13:42:10;12.37;;;3.90;;
3941;SDS011;1985;48.592;8.850;2023-05-07T13:44:36;13.83;;;4.07;;
3941;SDS011;1985;48.592;8.850;2023-05-07T13:47:01;10.57;;;3.13;;
3941;SDS011;1985;48.592;8.850;2023-05-07T13:49:27;10.88;;;3.50;;
3941;SDS011;1985;48.592;8.850;2023-05-07T13:51:53;11.30;;;3.53;;
3941;SDS011;1985;48.592;8.850;2023-05-07T13:54:18;12.00;;;3.60;;
3941;SDS011;1985;48.592;8.850;2023-05-07T13:56:44;13.27;;;3.80;;
3941;SDS011;1985;48.592;8.850;2023-05-07T13:59:09;11.93;;;3.50;;
3941;SDS011;1985;48.592;8.850;2023-05-07T14:01:35;11.13;;;3.80;;
3941;SDS011;1985;48.592;8.850;2023-05-07T14:04:01;12.93;;;3.10;;
3941;SDS011;1985;48.592;8.850;2023-05-07T14:06:26;13.40;;;3.00;;
3941;SDS011;1985;48.592;8.850;2023-05-07T14:08:52;10.80;;;3.10;;
3941;SDS011;1985;48.592;8.850;2023-05-07T14:11:17;13.93;;;4.40;;
3941;SDS011;1985;48.592;8.850;2023-05-07T14:13:43;11.85;;;3.90;;
3941;SDS011;1985;48.592;8.850;2023-05-07T14:16:09;12.67;;;3.40;;
3941;SDS011;1985;48.592;8.850;2023-05-07T14:18:34;13.37;;;3.10;;
3941;SDS011;1985;48.592;8.850;2023-05-07T14:21:02;12.93;;;3.42;;
3941;SDS011;1985;48.592;8.850;2023-05-07T14:23:31;14.50;;;3.80;;
3941;SDS011;1985;48.592;8.850;2023-05-07T14:25:56;17.60;;;3.50;;
3941;SDS011;1985;48.592;8.850;2023-05-07T14:28:23;13.50;;;3.80;;
3941;SDS011;1985;48.592;8.850;2023-05-07T14:30:48;12.73;;;3.50;;
3941;SDS011;1985;48.592;8.850;2023-05-07T14:33:14;10.85;;;3.00;;
3941;SDS011;1985;48.592;8.850;2023-05-07T14:35:40;12.20;;;3.00;;
3941;SDS011;1985;48.592;8.850;2023-05-07T14:38:06;12.00;;;3.10;;
3941;SDS011;1985;48.592;8.850;2023-05-07T14:40:31;9.65;;;2.60;;
3941;SDS011;1985;48.592;8.850;2023-05-07T14:42:57;10.57;;;2.90;;
3941;SDS011;1985;48.592;8.850;2023-05-07T14:45:23;12.40;;;3.07;;
3941;SDS011;1985;48.592;8.850;2023-05-07T14:47:48;12.43;;;2.90;;
3941;SDS011;1985;48.592;8.850;2023-05-07T14:50:14;10.80;;;2.63;;
3941;SDS011;1985;48.592;8.850;2023-05-07T14:52:39;12.97;;;2.90;;
3941;SDS011;1985;48.592;8.850;2023-05-07T14:55:05;9.15;;;2.35;;
3941;SDS011;1985;48.592;8.850;2023-05-07T14:57:31;11.00;;;2.60;;
3941;SDS011;1985;48.592;8.850;2023-05-07T15:00:00;8.60;;;2.00;;
3941;SDS011;1985;48.592;8.850;2023-05-07T15:02:26;10.15;;;2.47;;
3941;SDS011;1985;48.592;8.850;2023-05-07T15:04:52;9.95;;;2.10;;
3941;SDS011;1985;48.592;8.850;2023-05-07T15:07:18;8.60;;;1.85;;
3941;SDS011;1985;48.592;8.850;2023-05-07T15:09:44;10.10;;;2.30;;
3941;SDS011;1985;48.592;8.850;2023-05-07T15:12:10;10.15;;;2.20;;
3941;SDS011;1985;48.592;8.850;2023-05-07T15:14:37;10.18;;;2.30;;
3941;SDS011;1985;48.592;8.850;2023-05-07T15:17:03;8.90;;;2.00;;
3941;SDS011;1985;48.592;8.850;2023-05-07T15:19:29;9.30;;;2.40;;
3941;SDS011;1985;48.592;8.850;2023-05-07T15:21:56;9.20;;;2.20;;